createdAt,value
2019-02-15T00:00:40.870Z,0.00
2019-02-15T00:03:07.760Z,0.00
2019-02-15T00:05:34.162Z,0.00
2019-02-15T00:08:00.403Z,0.00
2019-02-15T00:10:26.791Z,0.00
2019-02-15T00:12:53.028Z,-0.10
2019-02-15T00:15:19.259Z,-0.10
2019-02-15T00:17:50.422Z,-0.20
2019-02-15T00:20:18.591Z,-0.20
2019-02-15T00:22:44.808Z,-0.20
2019-02-15T00:25:11.091Z,-0.30
2019-02-15T00:27:37.357Z,-0.20
2019-02-15T00:30:08.314Z,-0.20
2019-02-15T00:32:34.801Z,-0.20
2019-02-15T00:35:01.014Z,-0.20
2019-02-15T00:37:27.359Z,-0.30
2019-02-15T00:39:53.604Z,-0.30
2019-02-15T00:42:19.872Z,-0.20
2019-02-15T00:44:46.241Z,-0.30
2019-02-15T00:47:14.534Z,-0.40
2019-02-15T00:49:41.723Z,-0.50
2019-02-15T00:52:09.940Z,-0.50
2019-02-15T00:54:38.211Z,-0.50
2019-02-15T00:57:18.326Z,-0.40
2019-02-15T00:59:52.488Z,-0.40
2019-02-15T01:02:20.627Z,-0.50
2019-02-15T01:04:48.760Z,-0.50
2019-02-15T01:07:22.621Z,-0.40
2019-02-15T01:09:50.692Z,-0.50
2019-02-15T01:12:18.839Z,-0.60
2019-02-15T01:14:45.074Z,-0.60
2019-02-15T01:17:11.416Z,-0.70
2019-02-15T01:19:37.735Z,-0.70
2019-02-15T01:22:04.021Z,-0.70
2019-02-15T01:24:30.284Z,-0.70
2019-02-15T01:26:58.824Z,-0.70
2019-02-15T01:29:32.928Z,-0.70
2019-02-15T01:32:01.090Z,-0.60
2019-02-15T01:34:32.111Z,-0.60
2019-02-15T01:37:00.266Z,-0.60
2019-02-15T01:39:28.396Z,-0.70
2019-02-15T01:41:56.537Z,-0.80
2019-02-15T01:44:30.507Z,-0.80
2019-02-15T01:46:58.987Z,-0.90
2019-02-15T01:49:25.362Z,-0.90
2019-02-15T01:51:51.600Z,-0.90
2019-02-15T01:54:17.731Z,-1.00
2019-02-15T01:56:44.015Z,-1.00
2019-02-15T01:59:10.238Z,-0.90
2019-02-15T02:01:36.520Z,-0.90
2019-02-15T02:04:03.145Z,-0.90
2019-02-15T02:06:29.390Z,-0.90
2019-02-15T02:08:55.765Z,-0.90
2019-02-15T02:11:22.017Z,-1.00
2019-02-15T02:13:49.831Z,-1.00
2019-02-15T02:16:16.429Z,-1.00
2019-02-15T02:18:42.867Z,-1.00
2019-02-15T02:21:09.120Z,-1.00
2019-02-15T02:23:35.434Z,-1.10
2019-02-15T02:26:01.912Z,-1.10
2019-02-15T02:28:28.246Z,-1.10
2019-02-15T02:30:54.477Z,-1.10
2019-02-15T02:33:20.845Z,-1.10
2019-02-15T02:35:47.207Z,-1.20
2019-02-15T02:38:13.675Z,-1.20
2019-02-15T02:40:40.004Z,-1.20
2019-02-15T02:43:06.274Z,-1.10
2019-02-15T02:45:32.667Z,-1.20
2019-02-15T02:47:59.335Z,-1.20
2019-02-15T02:50:25.721Z,-1.20
2019-02-15T02:52:52.412Z,-1.20
2019-02-15T02:55:18.666Z,-1.10
2019-02-15T02:57:44.907Z,-1.20
2019-02-15T03:00:11.726Z,-1.30
2019-02-15T03:02:38.106Z,-1.30
2019-02-15T03:05:04.639Z,-1.40
2019-02-15T03:07:30.908Z,-1.40
2019-02-15T03:09:57.319Z,-1.40
2019-02-15T03:12:23.678Z,-1.40
2019-02-15T03:14:50.118Z,-1.50
2019-02-15T03:17:16.708Z,-1.50
2019-02-15T03:19:43.069Z,-1.50
2019-02-15T03:22:09.294Z,-1.50
2019-02-15T03:24:35.651Z,-1.50
2019-02-15T03:27:01.986Z,-1.50
2019-02-15T03:29:28.245Z,-1.50
2019-02-15T03:31:54.458Z,-1.50
2019-02-15T03:34:20.749Z,-1.50
2019-02-15T03:36:55.100Z,-1.50
2019-02-15T03:39:23.484Z,-1.50
2019-02-15T03:41:49.948Z,-1.50
2019-02-15T03:44:22.242Z,-1.50
2019-02-15T03:46:44.471Z,-1.60
2019-02-15T03:49:10.994Z,-1.70
2019-02-15T03:51:37.779Z,-1.70
2019-02-15T03:54:04.155Z,-1.70
2019-02-15T03:56:30.809Z,-1.80
2019-02-15T03:58:59.096Z,-1.80
2019-02-15T04:01:25.371Z,-1.80
2019-02-15T04:03:51.605Z,-1.90
2019-02-15T04:06:17.866Z,-1.90
2019-02-15T04:08:44.174Z,-1.90
2019-02-15T04:11:10.706Z,-1.90
2019-02-15T04:13:36.927Z,-2.00
2019-02-15T04:16:03.333Z,-2.00
2019-02-15T04:18:29.556Z,-2.00
2019-02-15T04:20:56.025Z,-2.00
2019-02-15T04:23:22.379Z,-2.00
2019-02-15T04:25:48.622Z,-2.00
2019-02-15T04:28:14.857Z,-2.00
2019-02-15T04:30:41.093Z,-2.00
2019-02-15T04:33:07.336Z,-2.00
2019-02-15T04:35:36.890Z,-1.90
2019-02-15T04:38:03.199Z,-1.90
2019-02-15T04:40:29.439Z,-1.90
2019-02-15T04:42:55.916Z,-1.90
2019-02-15T04:45:22.251Z,-2.00
2019-02-15T04:47:48.473Z,-2.00
2019-02-15T04:50:14.751Z,-2.00
2019-02-15T04:52:41.038Z,-2.00
2019-02-15T04:55:07.565Z,-2.00
2019-02-15T04:57:33.941Z,-2.00
2019-02-15T05:00:00.267Z,-2.10
2019-02-15T05:02:26.457Z,-2.10
2019-02-15T05:04:52.746Z,-2.00
2019-02-15T05:07:19.204Z,-2.00
2019-02-15T05:09:45.457Z,-2.10
2019-02-15T05:12:11.693Z,-2.10
2019-02-15T05:14:38.137Z,-2.10
2019-02-15T05:17:04.361Z,-2.10
2019-02-15T05:19:30.507Z,-2.20
2019-02-15T05:21:56.923Z,-2.20
2019-02-15T05:24:23.208Z,-2.20
2019-02-15T05:26:49.462Z,-2.30
2019-02-15T05:29:15.755Z,-2.20
2019-02-15T05:31:41.977Z,-2.20
2019-02-15T05:34:08.226Z,-2.30
2019-02-15T05:36:34.467Z,-2.30
2019-02-15T05:39:00.729Z,-2.40
2019-02-15T05:41:27.093Z,-2.30
2019-02-15T05:43:53.563Z,-2.30
2019-02-15T05:46:19.916Z,-2.30
2019-02-15T05:48:46.555Z,-2.30
2019-02-15T05:51:12.756Z,-2.30
2019-02-15T05:53:39.226Z,-2.20
2019-02-15T05:56:05.452Z,-2.30
2019-02-15T05:58:31.771Z,-2.30
2019-02-15T06:00:58.080Z,-2.30
2019-02-15T06:03:24.312Z,-2.30
2019-02-15T06:05:50.573Z,-2.20
2019-02-15T06:08:16.939Z,-2.20
2019-02-15T06:10:43.175Z,-2.30
2019-02-15T06:13:09.660Z,-2.20
2019-02-15T06:15:35.895Z,-2.20
2019-02-15T06:18:02.396Z,-2.20
2019-02-15T06:20:28.635Z,-2.20
2019-02-15T06:22:54.973Z,-2.30
2019-02-15T06:25:21.625Z,-2.30
2019-02-15T06:27:48.112Z,-2.30
2019-02-15T06:30:14.752Z,-2.30
2019-02-15T06:32:41.270Z,-2.30
2019-02-15T06:35:08.626Z,-2.30
2019-02-15T06:37:34.987Z,-2.40
2019-02-15T06:40:01.452Z,-2.40
2019-02-15T06:42:27.726Z,-2.50
2019-02-15T06:44:54.286Z,-2.40
2019-02-15T06:47:20.528Z,-2.50
2019-02-15T06:49:46.781Z,-2.50
2019-02-15T06:52:13.128Z,-2.50
2019-02-15T06:54:39.367Z,-2.50
2019-02-15T06:57:05.654Z,-2.60
2019-02-15T06:59:36.720Z,-2.60
2019-02-15T07:02:21.840Z,-2.60
2019-02-15T07:04:59.014Z,-2.60
2019-02-15T07:07:25.493Z,-2.50
2019-02-15T07:09:52.247Z,-2.50
2019-02-15T07:12:18.719Z,-2.50
2019-02-15T07:14:45.083Z,-2.50
2019-02-15T07:17:11.543Z,-2.50
2019-02-15T07:19:37.781Z,-2.50
2019-02-15T07:22:04.143Z,-2.50
2019-02-15T07:24:30.520Z,-2.40
2019-02-15T07:26:56.752Z,-2.40
2019-02-15T07:29:22.973Z,-2.40
2019-02-15T07:31:49.175Z,-2.40
2019-02-15T07:34:15.423Z,-2.40
2019-02-15T07:36:41.659Z,-2.30
2019-02-15T07:39:07.898Z,-2.30
2019-02-15T07:41:34.936Z,-2.30
2019-02-15T07:44:01.502Z,-2.20
2019-02-15T07:46:27.769Z,-2.20
2019-02-15T07:48:53.997Z,-2.20
2019-02-15T07:51:20.231Z,-2.10
2019-02-15T07:53:46.520Z,-2.10
2019-02-15T07:56:12.755Z,-2.00
2019-02-15T07:58:39.033Z,-2.00
2019-02-15T08:01:05.295Z,-1.90
2019-02-15T08:03:31.517Z,-1.90
2019-02-15T08:05:57.871Z,-1.80
2019-02-15T08:08:24.152Z,-1.80
2019-02-15T08:10:50.419Z,-1.70
2019-02-15T08:13:17.119Z,-1.60
2019-02-15T08:15:51.297Z,-1.60
2019-02-15T08:18:11.729Z,-1.50
2019-02-15T08:20:38.180Z,-1.50
2019-02-15T08:23:04.422Z,-1.40
2019-02-15T08:25:30.862Z,-1.30
2019-02-15T08:27:57.097Z,-1.20
2019-02-15T08:30:23.437Z,-1.20
2019-02-15T08:32:49.788Z,-1.10
2019-02-15T08:35:16.002Z,-1.00
2019-02-15T08:37:42.283Z,-0.90
2019-02-15T08:40:09.666Z,-0.80
2019-02-15T08:42:36.086Z,-0.70
2019-02-15T08:45:04.863Z,-0.60
2019-02-15T08:47:31.274Z,-0.50
2019-02-15T08:49:57.657Z,-0.40
2019-02-15T08:52:23.908Z,-0.30
2019-02-15T08:54:50.273Z,-0.20
2019-02-15T08:57:16.550Z,-0.10
2019-02-15T08:59:43.039Z,0.00
2019-02-15T09:02:11.227Z,0.00
2019-02-15T09:04:37.520Z,0.20
2019-02-15T09:07:03.866Z,0.40
2019-02-15T09:09:30.238Z,0.50
2019-02-15T09:11:56.516Z,0.70
2019-02-15T09:14:22.797Z,0.90
2019-02-15T09:16:49.132Z,1.10
2019-02-15T09:19:15.428Z,1.40
2019-02-15T09:21:41.668Z,1.50
2019-02-15T09:24:07.925Z,1.80
2019-02-15T09:26:34.190Z,2.10
2019-02-15T09:29:02.245Z,2.20
2019-02-15T09:31:28.639Z,2.50
2019-02-15T09:33:54.978Z,2.80
2019-02-15T09:36:21.218Z,3.00
2019-02-15T09:38:47.486Z,3.20
2019-02-15T09:41:13.972Z,3.40
2019-02-15T09:43:40.197Z,3.60
2019-02-15T09:46:06.568Z,4.10
2019-02-15T09:48:32.830Z,4.40
2019-02-15T09:50:58.984Z,4.70
2019-02-15T09:53:25.400Z,4.90
2019-02-15T09:55:51.622Z,5.10
2019-02-15T09:58:21.557Z,5.30
2019-02-15T10:00:47.761Z,5.40
2019-02-15T10:03:13.973Z,5.60
2019-02-15T10:05:40.256Z,5.90
2019-02-15T10:08:06.566Z,6.10
2019-02-15T10:10:32.885Z,6.30
2019-02-15T10:12:59.228Z,6.60
2019-02-15T10:15:25.636Z,6.90
2019-02-15T10:17:52.248Z,7.10
2019-02-15T10:20:18.666Z,7.20
2019-02-15T10:22:44.933Z,7.40
2019-02-15T10:25:11.466Z,7.60
2019-02-15T10:27:37.980Z,7.60
2019-02-15T10:30:08.076Z,7.80
2019-02-15T10:32:34.334Z,7.80
2019-02-15T10:35:00.596Z,7.90
2019-02-15T10:37:27.142Z,8.10
2019-02-15T10:39:53.398Z,8.20
2019-02-15T10:42:19.787Z,8.30
2019-02-15T10:44:46.124Z,8.40
2019-02-15T10:47:15.758Z,8.50
2019-02-15T10:49:40.528Z,8.70
2019-02-15T10:52:07.373Z,8.80
2019-02-15T10:54:33.616Z,8.90
2019-02-15T10:56:59.878Z,9.10
2019-02-15T10:59:26.150Z,9.20
2019-02-15T11:01:52.605Z,9.40
2019-02-15T11:04:18.851Z,9.50
2019-02-15T11:06:45.212Z,9.60
2019-02-15T11:09:11.567Z,9.70
2019-02-15T11:11:37.867Z,9.80
2019-02-15T11:14:04.254Z,9.80
2019-02-15T11:16:30.584Z,9.90
2019-02-15T11:18:56.871Z,10.00
2019-02-15T11:21:23.105Z,10.10
2019-02-15T11:23:49.427Z,10.20
2019-02-15T11:26:24.360Z,10.20
2019-02-15T11:28:43.762Z,10.30
2019-02-15T11:31:09.930Z,10.40
2019-02-15T11:33:36.283Z,10.50
2019-02-15T11:36:03.017Z,10.60
2019-02-15T11:38:29.278Z,10.60
2019-02-15T11:40:55.638Z,10.70
2019-02-15T11:43:21.912Z,10.80
2019-02-15T11:45:48.130Z,11.00
2019-02-15T11:48:14.482Z,11.00
2019-02-15T11:50:40.721Z,11.00
2019-02-15T11:53:07.121Z,11.00
2019-02-15T11:55:33.522Z,11.10
2019-02-15T11:57:59.787Z,11.10
2019-02-15T12:00:28.238Z,11.20
2019-02-15T12:02:54.498Z,11.20
2019-02-15T12:05:20.736Z,11.30
2019-02-15T12:07:47.005Z,11.30
2019-02-15T12:10:13.328Z,11.30
2019-02-15T12:12:39.738Z,11.30
2019-02-15T12:15:07.816Z,11.40
2019-02-15T12:17:34.142Z,11.40
2019-02-15T12:20:00.369Z,11.40
2019-02-15T12:22:26.612Z,11.50
2019-02-15T12:24:53.015Z,11.50
2019-02-15T12:27:19.247Z,11.50
2019-02-15T12:29:45.543Z,11.50
2019-02-15T12:32:11.897Z,11.60
2019-02-15T12:34:38.244Z,11.60
2019-02-15T12:37:04.671Z,11.70
2019-02-15T12:39:30.827Z,11.70
2019-02-15T12:41:57.117Z,11.80
2019-02-15T12:44:23.365Z,11.90
2019-02-15T12:46:49.630Z,12.00
2019-02-15T12:49:15.853Z,12.10
2019-02-15T12:51:42.222Z,12.10
2019-02-15T12:54:08.445Z,12.20
2019-02-15T12:56:34.707Z,12.30
2019-02-15T12:59:01.253Z,12.30
2019-02-15T13:01:27.576Z,12.30
2019-02-15T13:03:54.164Z,12.30
2019-02-15T13:06:28.481Z,12.40
2019-02-15T13:08:48.484Z,12.50
2019-02-15T13:11:14.840Z,12.50
2019-02-15T13:13:41.303Z,12.60
2019-02-15T13:16:07.652Z,12.60
2019-02-15T13:18:33.909Z,12.70
2019-02-15T13:21:00.139Z,12.70
2019-02-15T13:23:26.395Z,12.70
2019-02-15T13:25:52.638Z,12.70
2019-02-15T13:28:18.886Z,12.80
2019-02-15T13:30:45.117Z,12.80
2019-02-15T13:33:11.359Z,12.90
2019-02-15T13:35:39.505Z,12.90
2019-02-15T13:38:05.804Z,12.90
2019-02-15T13:40:32.098Z,12.90
2019-02-15T13:42:58.465Z,12.90
2019-02-15T13:45:24.735Z,12.90
2019-02-15T13:47:51.016Z,12.90
2019-02-15T13:50:19.098Z,13.10
2019-02-15T13:52:45.661Z,13.10
2019-02-15T13:55:12.178Z,13.10
2019-02-15T13:57:38.522Z,13.10
2019-02-15T14:00:08.091Z,13.10
2019-02-15T14:02:34.514Z,13.20
2019-02-15T14:05:00.790Z,13.10
2019-02-15T14:07:27.062Z,13.20
2019-02-15T14:09:53.395Z,13.10
2019-02-15T14:12:19.652Z,13.20
2019-02-15T14:14:46.011Z,13.20
2019-02-15T14:17:12.512Z,13.20
2019-02-15T14:19:38.649Z,13.20
2019-02-15T14:22:04.951Z,13.20
2019-02-15T14:24:31.252Z,13.20
2019-02-15T14:26:57.472Z,13.30
2019-02-15T14:29:23.689Z,13.20
2019-02-15T14:31:49.904Z,13.20
2019-02-15T14:34:16.061Z,13.30
2019-02-15T14:36:42.395Z,13.30
2019-02-15T14:39:10.747Z,13.30
2019-02-15T14:41:37.163Z,13.30
2019-02-15T14:44:03.436Z,13.30
2019-02-15T14:46:29.678Z,13.30
2019-02-15T14:48:56.197Z,13.30
2019-02-15T14:51:22.438Z,13.30
2019-02-15T14:53:48.945Z,13.30
2019-02-15T14:56:15.300Z,13.30
2019-02-15T14:58:41.555Z,13.30
2019-02-15T15:01:08.024Z,13.30
2019-02-15T15:03:34.437Z,13.30
2019-02-15T15:06:00.559Z,13.20
2019-02-15T15:08:26.963Z,13.20
2019-02-15T15:10:53.208Z,13.20
2019-02-15T15:13:19.676Z,13.20
2019-02-15T15:15:46.112Z,13.20
2019-02-15T15:18:13.412Z,13.20
2019-02-15T15:20:39.799Z,13.10
2019-02-15T15:23:06.167Z,13.10
2019-02-15T15:25:32.555Z,13.10
2019-02-15T15:27:58.794Z,13.10
2019-02-15T15:30:25.160Z,13.10
2019-02-15T15:32:51.578Z,13.00
2019-02-15T15:35:17.825Z,13.00
2019-02-15T15:37:44.156Z,13.00
2019-02-15T15:40:12.348Z,12.90
2019-02-15T15:42:38.600Z,12.90
2019-02-15T15:45:07.151Z,12.80
2019-02-15T15:47:33.412Z,12.80
2019-02-15T15:49:59.632Z,12.80
2019-02-15T15:52:25.969Z,12.80
2019-02-15T15:54:52.247Z,12.70
2019-02-15T15:57:18.506Z,12.60
2019-02-15T15:59:44.847Z,12.60
2019-02-15T16:02:10.966Z,12.50
2019-02-15T16:04:37.422Z,12.40
2019-02-15T16:07:03.745Z,12.40
2019-02-15T16:09:29.988Z,12.20
2019-02-15T16:11:56.457Z,12.10
2019-02-15T16:14:22.766Z,12.10
2019-02-15T16:16:49.039Z,11.90
2019-02-15T16:19:15.244Z,11.80
2019-02-15T16:21:41.501Z,11.60
2019-02-15T16:24:12.718Z,11.50
2019-02-15T16:26:35.870Z,11.30
2019-02-15T16:29:02.221Z,11.20
2019-02-15T16:31:28.540Z,11.10
2019-02-15T16:33:54.983Z,10.90
2019-02-15T16:36:21.763Z,10.80
2019-02-15T16:38:48.035Z,10.70
2019-02-15T16:41:14.401Z,10.50
2019-02-15T16:43:40.738Z,10.40
2019-02-15T16:46:07.058Z,10.30
2019-02-15T16:48:41.927Z,10.20
2019-02-15T16:51:01.376Z,10.10
2019-02-15T16:53:27.720Z,10.10
2019-02-15T16:55:54.193Z,9.90
2019-02-15T16:58:20.582Z,9.80
2019-02-15T17:00:46.731Z,9.70
2019-02-15T17:03:13.128Z,9.70
2019-02-15T17:05:39.297Z,9.60
2019-02-15T17:08:05.822Z,9.50
2019-02-15T17:10:32.143Z,9.40
2019-02-15T17:12:58.785Z,9.40
2019-02-15T17:15:24.999Z,9.30
2019-02-15T17:17:51.272Z,9.20
2019-02-15T17:20:17.524Z,9.10
2019-02-15T17:22:43.787Z,9.00
2019-02-15T17:25:10.725Z,8.90
2019-02-15T17:27:37.166Z,8.80
2019-02-15T17:30:07.238Z,8.70
2019-02-15T17:32:33.447Z,8.60
2019-02-15T17:34:59.812Z,8.50
2019-02-15T17:37:25.958Z,8.40
2019-02-15T17:39:52.141Z,8.30
2019-02-15T17:42:18.383Z,8.30
2019-02-15T17:44:44.704Z,8.20
2019-02-15T17:47:11.022Z,8.00
2019-02-15T17:49:37.310Z,7.90
2019-02-15T17:52:03.487Z,7.90
2019-02-15T17:54:29.810Z,7.90
2019-02-15T17:56:56.139Z,7.90
2019-02-15T17:59:22.441Z,7.80
2019-02-15T18:01:48.686Z,7.70
2019-02-15T18:04:14.833Z,7.70
2019-02-15T18:06:41.165Z,7.60
2019-02-15T18:09:07.408Z,7.60
2019-02-15T18:11:33.618Z,7.50
2019-02-15T18:13:59.899Z,7.40
2019-02-15T18:16:26.230Z,7.40
2019-02-15T18:18:52.479Z,7.20
2019-02-15T18:21:18.982Z,7.10
2019-02-15T18:23:45.240Z,7.00
2019-02-15T18:26:11.631Z,6.90
2019-02-15T18:28:37.928Z,6.80
2019-02-15T18:31:05.864Z,6.80
2019-02-15T18:33:32.158Z,6.70
2019-02-15T18:35:58.407Z,6.70
2019-02-15T18:38:24.556Z,6.60
2019-02-15T18:40:50.997Z,6.50
2019-02-15T18:43:17.201Z,6.40
2019-02-15T18:45:43.422Z,6.30
2019-02-15T18:48:09.561Z,6.30
2019-02-15T18:50:35.905Z,6.20
2019-02-15T18:53:02.159Z,6.10
2019-02-15T18:55:28.401Z,6.10
2019-02-15T18:57:54.660Z,6.10
2019-02-15T19:00:20.960Z,6.00
2019-02-15T19:02:48.422Z,5.80
2019-02-15T19:05:14.715Z,5.70
2019-02-15T19:07:41.204Z,5.80
2019-02-15T19:10:22.273Z,5.80
2019-02-15T19:12:48.651Z,5.80
2019-02-15T19:15:15.490Z,5.60
2019-02-15T19:17:41.899Z,5.50
2019-02-15T19:20:10.390Z,5.50
2019-02-15T19:22:36.614Z,5.40
2019-02-15T19:25:05.977Z,5.30
2019-02-15T19:27:32.265Z,5.30
2019-02-15T19:29:58.510Z,5.20
2019-02-15T19:32:25.065Z,5.20
2019-02-15T19:34:54.341Z,5.10
2019-02-15T19:37:22.205Z,5.00
2019-02-15T19:39:48.558Z,5.00
2019-02-15T19:42:15.090Z,4.90
2019-02-15T19:44:41.589Z,4.80
2019-02-15T19:47:07.951Z,4.80
2019-02-15T19:49:39.059Z,4.80
2019-02-15T19:52:06.019Z,4.70
2019-02-15T19:54:33.148Z,4.70
2019-02-15T19:57:03.952Z,4.70
2019-02-15T19:59:37.937Z,4.50
2019-02-15T20:02:04.280Z,4.40
2019-02-15T20:04:33.596Z,4.40
2019-02-15T20:07:00.224Z,4.20
2019-02-15T20:09:26.586Z,4.10
2019-02-15T20:11:52.799Z,4.10
2019-02-15T20:14:23.571Z,4.10
2019-02-15T20:16:54.934Z,4.10
2019-02-15T20:19:21.300Z,4.00
2019-02-15T20:21:47.515Z,4.00
2019-02-15T20:24:22.870Z,4.00
2019-02-15T20:26:49.118Z,3.90
2019-02-15T20:29:17.717Z,3.80
2019-02-15T20:31:44.084Z,3.70
2019-02-15T20:34:10.369Z,3.80
2019-02-15T20:36:36.678Z,3.80
2019-02-15T20:39:14.138Z,3.70
2019-02-15T20:41:37.925Z,3.60
2019-02-15T20:44:04.433Z,3.60
2019-02-15T20:46:30.746Z,3.50
2019-02-15T20:49:04.251Z,3.40
2019-02-15T20:51:25.152Z,3.30
2019-02-15T20:53:51.801Z,3.20
2019-02-15T20:56:18.130Z,3.20
2019-02-15T20:58:46.309Z,3.20
2019-02-15T21:01:12.672Z,3.20
2019-02-15T21:03:38.895Z,3.10
2019-02-15T21:06:10.231Z,3.00
2019-02-15T21:08:36.762Z,3.00
2019-02-15T21:11:03.366Z,3.00
2019-02-15T21:13:29.690Z,3.00
2019-02-15T21:15:56.075Z,3.00
2019-02-15T21:18:22.398Z,3.00
2019-02-15T21:20:48.713Z,2.90
2019-02-15T21:23:18.918Z,2.80
2019-02-15T21:25:48.636Z,2.70
2019-02-15T21:28:20.631Z,2.60
2019-02-15T21:30:48.083Z,2.60
2019-02-15T21:33:20.185Z,2.60
2019-02-15T21:35:47.059Z,2.60
2019-02-15T21:38:13.303Z,2.70
2019-02-15T21:40:39.559Z,2.60
2019-02-15T21:43:13.815Z,2.60
2019-02-15T21:45:40.877Z,2.50
2019-02-15T21:48:14.867Z,2.50
2019-02-15T21:50:46.005Z,2.40
2019-02-15T21:53:19.217Z,2.40
2019-02-15T21:55:45.941Z,2.30
2019-02-15T21:58:13.272Z,2.20
2019-02-15T22:00:39.722Z,2.20
2019-02-15T22:03:07.108Z,2.20
2019-02-15T22:05:33.334Z,2.10
2019-02-15T22:08:02.293Z,2.20
2019-02-15T22:10:33.998Z,2.10
2019-02-15T22:13:04.940Z,2.10
2019-02-15T22:15:31.906Z,2.00
2019-02-15T22:17:58.144Z,1.90
2019-02-15T22:20:27.008Z,1.80
2019-02-15T22:22:52.749Z,1.70
2019-02-15T22:25:23.675Z,1.70
2019-02-15T22:27:52.856Z,1.70
2019-02-15T22:30:19.516Z,1.80
2019-02-15T22:32:45.848Z,1.80
2019-02-15T22:35:12.289Z,1.70
2019-02-15T22:37:38.657Z,1.80
2019-02-15T22:40:25.377Z,1.80
2019-02-15T22:42:51.668Z,1.70
2019-02-15T22:45:17.891Z,1.60
2019-02-15T22:47:44.053Z,1.60
2019-02-15T22:50:10.319Z,1.50
2019-02-15T22:52:36.562Z,1.60
2019-02-15T22:55:03.567Z,1.60
2019-02-15T22:57:29.851Z,1.60
2019-02-15T22:59:55.978Z,1.50
2019-02-15T23:02:22.587Z,1.50
2019-02-15T23:04:48.898Z,1.40
2019-02-15T23:07:15.091Z,1.30
2019-02-15T23:09:41.247Z,1.20
2019-02-15T23:12:07.675Z,1.20
2019-02-15T23:14:33.815Z,1.20
2019-02-15T23:17:00.090Z,1.20
2019-02-15T23:19:26.470Z,1.20
2019-02-15T23:21:52.724Z,1.20
2019-02-15T23:24:18.983Z,1.20
2019-02-15T23:26:45.241Z,1.10
2019-02-15T23:29:11.490Z,1.00
2019-02-15T23:31:37.768Z,1.00
2019-02-15T23:34:04.005Z,1.00
2019-02-15T23:36:30.347Z,1.00
2019-02-15T23:38:56.691Z,0.90
2019-02-15T23:41:22.937Z,0.90
2019-02-15T23:43:49.331Z,0.90
2019-02-15T23:46:15.740Z,0.90
2019-02-15T23:48:42.068Z,0.90
2019-02-15T23:51:08.315Z,0.80
2019-02-15T23:53:34.664Z,0.70
2019-02-15T23:56:01.189Z,0.70
2019-02-15T23:58:27.660Z,0.70
